createdAt,value
2016-05-26T00:00:55.746Z,0
2016-05-26T00:01:55.764Z,0
2016-05-26T00:02:56.097Z,0
2016-05-26T00:03:55.753Z,0
2016-05-26T00:04:55.788Z,0
2016-05-26T00:05:55.775Z,0
2016-05-26T00:06:55.621Z,0
2016-05-26T00:07:55.780Z,0
2016-05-26T00:08:55.783Z,0
2016-05-26T00:09:55.629Z,0
2016-05-26T00:10:55.803Z,0
2016-05-26T00:11:55.650Z,0
2016-05-26T00:12:55.808Z,0
2016-05-26T00:13:55.530Z,0
2016-05-26T00:14:55.815Z,0
2016-05-26T00:15:55.817Z,0
2016-05-26T00:16:55.523Z,0
2016-05-26T00:17:55.869Z,0
2016-05-26T00:18:55.841Z,0
2016-05-26T00:19:55.844Z,0
2016-05-26T00:20:55.847Z,0
2016-05-26T00:21:55.849Z,0
2016-05-26T00:22:55.852Z,0
2016-05-26T00:23:55.871Z,0
2016-05-26T00:24:55.748Z,0
2016-05-26T00:25:55.891Z,0
2016-05-26T00:26:55.878Z,0
2016-05-26T00:27:55.724Z,0
2016-05-26T00:28:55.884Z,0
2016-05-26T00:29:55.917Z,0
2016-05-26T00:30:55.904Z,0
2016-05-26T00:31:55.907Z,0
2016-05-26T00:32:55.628Z,0
2016-05-26T00:33:55.772Z,0
2016-05-26T00:34:55.775Z,0
2016-05-26T00:35:55.778Z,0
2016-05-26T00:36:55.796Z,0
2016-05-26T00:37:55.940Z,0
2016-05-26T00:38:55.926Z,0
2016-05-26T00:39:55.945Z,0
2016-05-26T00:40:55.791Z,0
2016-05-26T00:41:55.809Z,0
2016-05-26T00:42:55.812Z,0
2016-05-26T00:43:55.830Z,0
2016-05-26T00:44:55.973Z,0
2016-05-26T00:45:55.975Z,0
2016-05-26T00:46:55.978Z,0
2016-05-26T00:47:56.622Z,0
2016-05-26T00:48:56.000Z,0
2016-05-26T00:49:55.705Z,0
2016-05-26T00:50:55.849Z,0
2016-05-26T00:51:56.008Z,0
2016-05-26T00:52:56.010Z,0
2016-05-26T00:53:55.716Z,0
2016-05-26T00:54:56.047Z,0
2016-05-26T00:55:55.893Z,0
2016-05-26T00:56:55.865Z,0
2016-05-26T00:57:56.055Z,0
2016-05-26T00:58:56.043Z,0
2016-05-26T00:59:55.904Z,0
2016-05-26T01:00:56.079Z,0
2016-05-26T01:01:55.910Z,0
2016-05-26T01:02:56.084Z,0
2016-05-26T01:03:56.056Z,0
2016-05-26T01:04:56.074Z,0
2016-05-26T01:05:56.077Z,0
2016-05-26T01:06:55.939Z,0
2016-05-26T01:07:56.114Z,0
2016-05-26T01:08:55.928Z,0
2016-05-26T01:09:55.947Z,0
2016-05-26T01:10:55.950Z,0
2016-05-26T01:11:56.108Z,0
2016-05-26T01:12:56.112Z,0
2016-05-26T01:13:56.114Z,0
2016-05-26T01:14:56.132Z,0
2016-05-26T01:15:55.994Z,0
2016-05-26T01:16:56.138Z,0
2016-05-26T01:17:56.172Z,0
2016-05-26T01:18:56.002Z,0
2016-05-26T01:19:56.146Z,0
2016-05-26T01:20:56.164Z,0
2016-05-26T01:21:56.011Z,0
2016-05-26T01:22:56.154Z,0
2016-05-26T01:23:56.171Z,0
2016-05-26T01:24:56.019Z,0
2016-05-26T01:25:56.177Z,0
2016-05-26T01:26:56.180Z,0
2016-05-26T01:27:56.198Z,0
2016-05-26T01:28:56.185Z,0
2016-05-26T01:29:56.048Z,0
2016-05-26T01:30:56.206Z,0
2016-05-26T01:31:55.897Z,0
2016-05-26T01:32:56.306Z,0
2016-05-26T01:33:56.230Z,0
2016-05-26T01:34:56.217Z,0
2016-05-26T01:35:56.220Z,0
2016-05-26T01:36:56.098Z,0
2016-05-26T01:37:56.085Z,0
2016-05-26T01:38:56.088Z,0
2016-05-26T01:39:56.262Z,0
2016-05-26T01:40:56.265Z,0
2016-05-26T01:41:56.267Z,0
2016-05-26T01:42:56.129Z,0
2016-05-26T01:43:56.273Z,0
2016-05-26T01:44:56.275Z,0
2016-05-26T01:45:56.278Z,0
2016-05-26T01:46:56.139Z,0
2016-05-26T01:47:57.721Z,0
2016-05-26T01:48:56.317Z,0
2016-05-26T01:49:56.163Z,0
2016-05-26T01:50:56.307Z,0
2016-05-26T01:51:56.325Z,0
2016-05-26T01:52:56.328Z,0
2016-05-26T01:53:56.175Z,0
2016-05-26T01:54:56.333Z,0
2016-05-26T01:55:56.336Z,0
2016-05-26T01:56:56.433Z,0
2016-05-26T01:57:56.186Z,0
2016-05-26T01:58:56.344Z,0
2016-05-26T01:59:56.363Z,0
2016-05-26T02:00:56.209Z,0
2016-05-26T02:01:56.352Z,0
2016-05-26T02:02:56.855Z,0
2016-05-26T02:03:56.389Z,0
2016-05-26T02:04:56.407Z,0
2016-05-26T02:05:56.378Z,0
2016-05-26T02:06:56.241Z,0
2016-05-26T02:07:56.415Z,0
2016-05-26T02:08:56.246Z,0
2016-05-26T02:09:56.248Z,0
2016-05-26T02:10:56.423Z,0
2016-05-26T02:11:56.411Z,0
2016-05-26T02:12:56.428Z,0
2016-05-26T02:13:56.448Z,0
2016-05-26T02:14:56.294Z,0
2016-05-26T02:15:56.452Z,0
2016-05-26T02:16:56.142Z,0
2016-05-26T02:17:56.505Z,0
2016-05-26T02:18:56.320Z,0
2016-05-26T02:19:56.464Z,0
2016-05-26T02:20:56.325Z,0
2016-05-26T02:21:56.313Z,0
2016-05-26T02:22:56.316Z,0
2016-05-26T02:23:56.474Z,0
2016-05-26T02:24:56.477Z,0
2016-05-26T02:25:56.338Z,0
2016-05-26T02:26:56.201Z,0
2016-05-26T02:27:56.500Z,0
2016-05-26T02:28:56.518Z,0
2016-05-26T02:29:56.365Z,0
2016-05-26T02:30:56.508Z,0
2016-05-26T02:31:56.510Z,0
2016-05-26T02:32:56.248Z,0
2016-05-26T02:33:56.532Z,0
2016-05-26T02:34:56.535Z,0
2016-05-26T02:35:56.538Z,0
2016-05-26T02:36:56.556Z,0
2016-05-26T02:37:56.559Z,0
2016-05-26T02:38:56.562Z,0
2016-05-26T02:39:56.564Z,0
2016-05-26T02:40:56.567Z,0
2016-05-26T02:41:56.570Z,0
2016-05-26T02:42:56.572Z,0
2016-05-26T02:43:56.575Z,0
2016-05-26T02:44:56.421Z,0
2016-05-26T02:45:56.595Z,0
2016-05-26T02:46:56.520Z,0
2016-05-26T02:47:56.757Z,0
2016-05-26T02:48:56.353Z,0
2016-05-26T02:49:56.528Z,0
2016-05-26T02:50:56.530Z,0
2016-05-26T02:51:56.596Z,0
2016-05-26T02:52:56.474Z,0
2016-05-26T02:53:56.555Z,0
2016-05-26T02:54:56.339Z,0
2016-05-26T02:55:56.451Z,0
2016-05-26T02:56:56.640Z,0
2016-05-26T02:57:56.519Z,0
2016-05-26T02:58:56.663Z,0
2016-05-26T02:59:56.665Z,0
2016-05-26T03:00:56.699Z,0
2016-05-26T03:01:56.670Z,0
2016-05-26T03:02:57.516Z,0
2016-05-26T03:03:56.676Z,0
2016-05-26T03:04:56.678Z,0
2016-05-26T03:05:56.696Z,0
2016-05-26T03:06:56.699Z,0
2016-05-26T03:07:56.701Z,0
2016-05-26T03:08:56.565Z,0
2016-05-26T03:09:56.551Z,0
2016-05-26T03:10:56.412Z,0
2016-05-26T03:11:56.712Z,0
2016-05-26T03:12:56.575Z,0
2016-05-26T03:13:56.749Z,0
2016-05-26T03:14:56.581Z,0
2016-05-26T03:15:56.754Z,0
2016-05-26T03:16:56.757Z,0
2016-05-26T03:17:57.495Z,0
2016-05-26T03:18:56.778Z,0
2016-05-26T03:19:56.797Z,0
2016-05-26T03:20:56.783Z,0
2016-05-26T03:21:56.786Z,0
2016-05-26T03:22:56.617Z,0
2016-05-26T03:23:56.791Z,0
2016-05-26T03:24:56.778Z,0
2016-05-26T03:25:56.656Z,0
2016-05-26T03:26:56.799Z,0
2016-05-26T03:27:56.802Z,0
2016-05-26T03:28:56.493Z,0
2016-05-26T03:29:56.808Z,0
2016-05-26T03:30:56.654Z,0
2016-05-26T03:31:56.672Z,0
2016-05-26T03:32:57.941Z,0
2016-05-26T03:33:56.835Z,0
2016-05-26T03:34:56.837Z,0
2016-05-26T03:35:56.854Z,0
2016-05-26T03:36:56.530Z,0
2016-05-26T03:37:56.704Z,0
2016-05-26T03:38:56.863Z,0
2016-05-26T03:39:56.865Z,5
2016-05-26T03:40:56.900Z,5
2016-05-26T03:41:56.887Z,5
2016-05-26T03:42:56.717Z,5
2016-05-26T03:43:56.892Z,5
2016-05-26T03:44:56.895Z,5
2016-05-26T03:45:56.584Z,5
2016-05-26T03:46:56.759Z,5
2016-05-26T03:47:56.809Z,5
2016-05-26T03:48:56.906Z,5
2016-05-26T03:49:56.909Z,5
2016-05-26T03:50:56.911Z,5
2016-05-26T03:51:56.773Z,5
2016-05-26T03:52:56.775Z,5
2016-05-26T03:53:56.778Z,10
2016-05-26T03:54:56.938Z,10
2016-05-26T03:55:56.941Z,10
2016-05-26T03:56:56.802Z,10
2016-05-26T03:57:56.805Z,10
2016-05-26T03:58:56.963Z,10
2016-05-26T03:59:56.966Z,10
2016-05-26T04:00:56.813Z,10
2016-05-26T04:01:56.816Z,15
2016-05-26T04:02:57.255Z,15
2016-05-26T04:03:56.868Z,15
2016-05-26T04:04:56.996Z,15
2016-05-26T04:05:56.843Z,15
2016-05-26T04:06:57.001Z,15
2016-05-26T04:07:57.004Z,15
2016-05-26T04:08:57.022Z,15
2016-05-26T04:09:56.868Z,15
2016-05-26T04:10:56.871Z,20
2016-05-26T04:11:57.029Z,20
2016-05-26T04:12:57.048Z,20
2016-05-26T04:13:56.879Z,20
2016-05-26T04:14:57.038Z,20
2016-05-26T04:15:57.040Z,25
2016-05-26T04:16:57.059Z,25
2016-05-26T04:17:57.077Z,25
2016-05-26T04:18:56.909Z,25
2016-05-26T04:19:56.927Z,25
2016-05-26T04:20:56.757Z,25
2016-05-26T04:21:57.088Z,25
2016-05-26T04:22:57.091Z,30
2016-05-26T04:23:57.078Z,30
2016-05-26T04:24:57.097Z,30
2016-05-26T04:25:57.099Z,30
2016-05-26T04:26:57.102Z,30
2016-05-26T04:27:56.948Z,30
2016-05-26T04:28:56.794Z,30
2016-05-26T04:29:57.110Z,30
2016-05-26T04:30:57.144Z,30
2016-05-26T04:31:57.146Z,30
2016-05-26T04:32:57.446Z,25
2016-05-26T04:33:57.136Z,25
2016-05-26T04:34:57.154Z,25
2016-05-26T04:35:57.001Z,25
2016-05-26T04:36:57.003Z,25
2016-05-26T04:37:57.163Z,25
2016-05-26T04:38:57.166Z,25
2016-05-26T04:39:56.996Z,25
2016-05-26T04:40:57.015Z,25
2016-05-26T04:41:57.017Z,25
2016-05-26T04:42:57.020Z,25
2016-05-26T04:43:57.210Z,25
2016-05-26T04:44:57.212Z,25
2016-05-26T04:45:57.028Z,25
2016-05-26T04:46:57.203Z,25
2016-05-26T04:47:57.845Z,20
2016-05-26T04:48:57.208Z,15
2016-05-26T04:49:57.226Z,15
2016-05-26T04:50:57.213Z,15
2016-05-26T04:51:57.075Z,15
2016-05-26T04:52:57.234Z,15
2016-05-26T04:53:57.237Z,15
2016-05-26T04:54:57.115Z,15
2016-05-26T04:55:57.241Z,15
2016-05-26T04:56:57.245Z,15
2016-05-26T04:57:57.264Z,15
2016-05-26T04:58:57.281Z,15
2016-05-26T04:59:57.269Z,15
2016-05-26T05:00:57.286Z,15
2016-05-26T05:01:57.289Z,15
2016-05-26T05:02:57.152Z,15
2016-05-26T05:03:56.998Z,15
2016-05-26T05:04:57.141Z,15
2016-05-26T05:05:57.315Z,15
2016-05-26T05:06:57.318Z,15
2016-05-26T05:07:57.150Z,10
2016-05-26T05:08:57.168Z,10
2016-05-26T05:09:57.326Z,10
2016-05-26T05:10:57.329Z,10
2016-05-26T05:11:57.191Z,10
2016-05-26T05:12:57.194Z,10
2016-05-26T05:13:57.354Z,10
2016-05-26T05:14:57.199Z,10
2016-05-26T05:15:57.359Z,10
2016-05-26T05:16:57.346Z,10
2016-05-26T05:17:57.286Z,10
2016-05-26T05:18:57.381Z,10
2016-05-26T05:19:57.384Z,10
2016-05-26T05:20:57.372Z,10
2016-05-26T05:21:57.375Z,10
2016-05-26T05:22:57.236Z,10
2016-05-26T05:23:57.084Z,10
2016-05-26T05:24:57.242Z,10
2016-05-26T05:25:57.244Z,10
2016-05-26T05:26:57.247Z,10
2016-05-26T05:27:57.422Z,10
2016-05-26T05:28:57.409Z,10
2016-05-26T05:29:57.428Z,10
2016-05-26T05:30:57.430Z,10
2016-05-26T05:31:57.449Z,10
2016-05-26T05:32:58.030Z,10
2016-05-26T05:33:57.454Z,10
2016-05-26T05:34:57.441Z,10
2016-05-26T05:35:57.460Z,10
2016-05-26T05:36:57.462Z,10
2016-05-26T05:37:57.324Z,10
2016-05-26T05:38:57.467Z,10
2016-05-26T05:39:57.470Z,10
2016-05-26T05:40:57.316Z,10
2016-05-26T05:41:57.335Z,10
2016-05-26T05:42:57.337Z,10
2016-05-26T05:43:57.356Z,10
2016-05-26T05:44:57.498Z,10
2016-05-26T05:45:57.517Z,15
2016-05-26T05:46:57.364Z,15
2016-05-26T05:47:58.351Z,15
2016-05-26T05:48:57.526Z,15
2016-05-26T05:49:57.543Z,15
2016-05-26T05:50:57.562Z,15
2016-05-26T05:51:57.096Z,20
2016-05-26T05:52:57.411Z,20
2016-05-26T05:53:57.725Z,20
2016-05-26T05:54:57.556Z,20
2016-05-26T05:55:57.403Z,20
2016-05-26T05:56:57.250Z,20
2016-05-26T05:57:57.424Z,25
2016-05-26T05:58:57.567Z,25
2016-05-26T05:59:57.430Z,25
2016-05-26T06:00:57.432Z,25
2016-05-26T06:01:57.436Z,25
2016-05-26T06:02:57.610Z,25
2016-05-26T06:03:57.863Z,25
2016-05-26T06:04:57.616Z,25
2016-05-26T06:05:57.633Z,25
2016-05-26T06:06:57.449Z,25
2016-05-26T06:07:57.607Z,25
2016-05-26T06:08:57.626Z,25
2016-05-26T06:09:57.316Z,25
2016-05-26T06:10:57.616Z,30
2016-05-26T06:11:57.634Z,30
2016-05-26T06:12:57.652Z,30
2016-05-26T06:13:57.499Z,30
2016-05-26T06:14:57.657Z,30
2016-05-26T06:15:57.660Z,30
2016-05-26T06:16:57.662Z,30
2016-05-26T06:17:58.525Z,30
2016-05-26T06:18:57.388Z,30
2016-05-26T06:19:57.687Z,35
2016-05-26T06:20:57.690Z,35
2016-05-26T06:21:57.692Z,35
2016-05-26T06:22:57.695Z,40
2016-05-26T06:23:57.557Z,40
2016-05-26T06:24:57.700Z,40
2016-05-26T06:25:57.719Z,45
2016-05-26T06:26:57.706Z,45
2016-05-26T06:27:57.724Z,50
2016-05-26T06:28:57.586Z,50
2016-05-26T06:29:57.573Z,50
2016-05-26T06:30:57.732Z,50
2016-05-26T06:31:57.735Z,55
2016-05-26T06:32:57.847Z,55
2016-05-26T06:33:57.911Z,55
2016-05-26T06:34:57.758Z,55
2016-05-26T06:35:57.604Z,60
2016-05-26T06:36:57.763Z,60
2016-05-26T06:37:57.642Z,60
2016-05-26T06:38:57.769Z,65
2016-05-26T06:39:57.632Z,65
2016-05-26T06:40:57.774Z,70
2016-05-26T06:41:57.793Z,75
2016-05-26T06:42:57.811Z,70
2016-05-26T06:43:57.799Z,70
2016-05-26T06:44:57.816Z,75
2016-05-26T06:45:57.819Z,75
2016-05-26T06:46:57.807Z,80
2016-05-26T06:47:59.231Z,80
2016-05-26T06:48:57.702Z,80
2016-05-26T06:49:57.829Z,90
2016-05-26T06:50:57.848Z,115
2016-05-26T06:51:57.710Z,205
2016-05-26T06:52:57.698Z,180
2016-05-26T06:53:57.872Z,125
2016-05-26T06:54:57.858Z,125
2016-05-26T06:55:57.862Z,115
2016-05-26T06:56:57.708Z,90
2016-05-26T06:57:57.883Z,85
2016-05-26T06:58:57.886Z,85
2016-05-26T06:59:57.731Z,95
2016-05-26T07:00:57.734Z,95
2016-05-26T07:01:57.737Z,120
2016-05-26T07:02:58.147Z,110
2016-05-26T07:03:58.149Z,130
2016-05-26T07:04:57.761Z,125
2016-05-26T07:05:57.905Z,120
2016-05-26T07:06:57.922Z,130
2016-05-26T07:07:57.925Z,235
2016-05-26T07:08:57.615Z,225
2016-05-26T07:09:57.930Z,175
2016-05-26T07:10:57.965Z,180
2016-05-26T07:11:57.638Z,205
2016-05-26T07:12:57.798Z,415
2016-05-26T07:13:57.957Z,490
2016-05-26T07:14:57.804Z,735
2016-05-26T07:15:57.821Z,750
2016-05-26T07:16:57.981Z,775
2016-05-26T07:17:57.701Z,475
2016-05-26T07:18:58.049Z,380
2016-05-26T07:19:58.005Z,545
2016-05-26T07:20:58.007Z,750
2016-05-26T07:21:58.010Z,615
2016-05-26T07:22:57.872Z,690
2016-05-26T07:23:57.859Z,715
2016-05-26T07:24:58.034Z,480
2016-05-26T07:25:58.036Z,740
2016-05-26T07:26:58.039Z,710
2016-05-26T07:27:57.886Z,300
2016-05-26T07:28:58.044Z,300
2016-05-26T07:29:57.906Z,260
2016-05-26T07:30:58.064Z,425
2016-05-26T07:31:58.067Z,620
2016-05-26T07:32:58.352Z,770
2016-05-26T07:33:58.417Z,670
2016-05-26T07:34:58.107Z,825
2016-05-26T07:35:57.938Z,305
2016-05-26T07:36:58.112Z,270
2016-05-26T07:37:58.161Z,250
2016-05-26T07:38:58.173Z,320
2016-05-26T07:39:58.200Z,250
2016-05-26T07:40:58.244Z,240
2016-05-26T07:41:58.271Z,230
2016-05-26T07:42:58.290Z,225
2016-05-26T07:43:58.302Z,220
2016-05-26T07:44:58.016Z,225
2016-05-26T07:45:58.340Z,235
2016-05-26T07:46:58.367Z,235
2016-05-26T07:47:59.376Z,235
2016-05-26T07:48:58.100Z,235
2016-05-26T07:49:58.435Z,230
2016-05-26T07:50:58.394Z,225
2016-05-26T07:51:58.260Z,220
2016-05-26T07:52:58.405Z,220
2016-05-26T07:53:58.425Z,220
2016-05-26T07:54:58.428Z,225
2016-05-26T07:55:58.433Z,225
2016-05-26T07:56:58.281Z,220
2016-05-26T07:57:58.455Z,215
2016-05-26T07:58:58.457Z,215
2016-05-26T07:59:58.461Z,215
2016-05-26T08:00:58.324Z,210
2016-05-26T08:01:58.482Z,210
2016-05-26T08:02:58.674Z,210
2016-05-26T08:03:58.863Z,205
2016-05-26T08:04:58.507Z,205
2016-05-26T08:05:58.510Z,200
2016-05-26T08:06:58.513Z,195
2016-05-26T08:07:58.358Z,190
2016-05-26T08:08:58.376Z,185
2016-05-26T08:09:58.380Z,170
2016-05-26T08:10:58.383Z,165
2016-05-26T08:11:58.541Z,175
2016-05-26T08:12:58.544Z,185
2016-05-26T08:13:58.249Z,185
2016-05-26T08:14:58.565Z,185
2016-05-26T08:15:58.568Z,185
2016-05-26T08:16:58.571Z,180
2016-05-26T08:17:59.589Z,170
2016-05-26T08:18:58.466Z,170
2016-05-26T08:19:58.438Z,160
2016-05-26T08:20:58.597Z,155
2016-05-26T08:21:58.615Z,130
2016-05-26T08:22:58.602Z,115
2016-05-26T08:23:58.448Z,100
2016-05-26T08:24:58.467Z,90
2016-05-26T08:25:58.625Z,90
2016-05-26T08:26:59.425Z,85
2016-05-26T08:27:58.631Z,80
2016-05-26T08:28:58.493Z,75
2016-05-26T08:29:58.496Z,70
2016-05-26T08:30:58.499Z,65
2016-05-26T08:31:58.657Z,65
2016-05-26T08:32:59.222Z,65
2016-05-26T08:33:59.070Z,65
2016-05-26T08:34:58.696Z,65
2016-05-26T08:35:58.715Z,70
2016-05-26T08:36:58.561Z,70
2016-05-26T08:37:58.549Z,70
2016-05-26T08:38:58.552Z,65
2016-05-26T08:39:58.727Z,65
2016-05-26T08:40:58.728Z,65
2016-05-26T08:41:59.216Z,65
2016-05-26T08:42:58.735Z,65
2016-05-26T08:43:58.752Z,65
2016-05-26T08:44:58.740Z,65
2016-05-26T08:45:58.429Z,60
2016-05-26T08:47:00.479Z,60
2016-05-26T08:47:58.451Z,60
2016-05-26T08:48:59.298Z,65
2016-05-26T08:49:58.768Z,65
2016-05-26T08:50:58.631Z,65
2016-05-26T08:52:00.806Z,65
2016-05-26T08:52:58.792Z,70
2016-05-26T08:53:58.639Z,70
2016-05-26T08:54:58.813Z,70
2016-05-26T08:55:58.800Z,70
2016-05-26T08:56:58.678Z,70
2016-05-26T08:57:58.806Z,75
2016-05-26T08:58:58.667Z,85
2016-05-26T08:59:58.686Z,95
2016-05-26T09:00:58.830Z,115
2016-05-26T09:01:58.847Z,115
2016-05-26T09:02:58.694Z,125
2016-05-26T09:03:58.931Z,90
2016-05-26T09:04:58.699Z,85
2016-05-26T09:05:58.718Z,85
2016-05-26T09:06:58.877Z,90
2016-05-26T09:07:58.879Z,90
2016-05-26T09:08:58.726Z,85
2016-05-26T09:09:58.900Z,90
2016-05-26T09:10:58.887Z,95
2016-05-26T09:11:58.921Z,110
2016-05-26T09:12:58.908Z,95
2016-05-26T09:13:58.770Z,90
2016-05-26T09:14:58.773Z,85
2016-05-26T09:15:58.620Z,85
2016-05-26T09:16:58.779Z,75
2016-05-26T09:17:59.406Z,75
2016-05-26T09:18:58.956Z,70
2016-05-26T09:19:58.959Z,70
2016-05-26T09:20:58.961Z,65
2016-05-26T09:21:58.948Z,65
2016-05-26T09:22:58.982Z,65
2016-05-26T09:23:58.970Z,60
2016-05-26T09:24:58.988Z,65
2016-05-26T09:25:58.989Z,60
2016-05-26T09:26:58.993Z,65
2016-05-26T09:27:58.839Z,70
2016-05-26T09:28:58.873Z,70
2016-05-26T09:29:59.017Z,70
2016-05-26T09:30:58.879Z,70
2016-05-26T09:31:59.022Z,70
2016-05-26T09:32:59.025Z,65
2016-05-26T09:33:59.856Z,80
2016-05-26T09:34:59.046Z,85
2016-05-26T09:35:59.033Z,75
2016-05-26T09:36:59.035Z,80
2016-05-26T09:37:59.069Z,75
2016-05-26T09:38:58.900Z,80
2016-05-26T09:39:58.903Z,85
2016-05-26T09:40:58.765Z,85
2016-05-26T09:41:59.065Z,85
2016-05-26T09:42:59.083Z,85
2016-05-26T09:43:59.101Z,85
2016-05-26T09:44:58.776Z,85
2016-05-26T09:45:59.091Z,85
2016-05-26T09:46:59.110Z,80
2016-05-26T09:47:59.190Z,85
2016-05-26T09:48:59.146Z,85
2016-05-26T09:49:59.133Z,90
2016-05-26T09:50:59.135Z,95
2016-05-26T09:51:59.138Z,95
2016-05-26T09:52:58.984Z,100
2016-05-26T09:53:59.004Z,120
2016-05-26T09:54:59.006Z,105
2016-05-26T09:55:59.149Z,100
2016-05-26T09:56:59.011Z,125
2016-05-26T09:57:59.170Z,125
2016-05-26T09:58:59.017Z,100
2016-05-26T09:59:59.035Z,90
2016-05-26T10:00:59.022Z,85
2016-05-26T10:01:59.040Z,80
2016-05-26T10:02:59.058Z,75
2016-05-26T10:03:59.217Z,70
2016-05-26T10:04:59.205Z,70
2016-05-26T10:05:58.911Z,65
2016-05-26T10:06:59.069Z,65
2016-05-26T10:07:59.228Z,65
2016-05-26T10:08:59.231Z,70
2016-05-26T10:09:59.233Z,80
2016-05-26T10:10:59.268Z,95
2016-05-26T10:11:59.239Z,80
2016-05-26T10:12:59.102Z,80
2016-05-26T10:13:59.244Z,80
2016-05-26T10:14:58.950Z,85
2016-05-26T10:15:59.282Z,90
2016-05-26T10:16:59.252Z,95
2016-05-26T10:17:59.270Z,95
2016-05-26T10:18:59.696Z,115
2016-05-26T10:19:59.120Z,115
2016-05-26T10:20:59.295Z,120
2016-05-26T10:21:59.140Z,125
2016-05-26T10:22:59.300Z,130
2016-05-26T10:23:59.303Z,125
2016-05-26T10:24:59.306Z,120
2016-05-26T10:25:59.339Z,120
2016-05-26T10:26:59.326Z,120
2016-05-26T10:27:59.314Z,115
2016-05-26T10:28:59.176Z,110
2016-05-26T10:29:59.178Z,105
2016-05-26T10:30:59.322Z,110
2016-05-26T10:31:59.339Z,110
2016-05-26T10:32:59.342Z,110
2016-05-26T10:33:59.392Z,110
2016-05-26T10:34:59.347Z,110
2016-05-26T10:35:59.210Z,110
2016-05-26T10:36:59.227Z,110
2016-05-26T10:37:59.372Z,115
2016-05-26T10:38:59.233Z,115
2016-05-26T10:39:59.377Z,120
2016-05-26T10:40:59.380Z,125
2016-05-26T10:41:59.429Z,120
2016-05-26T10:42:59.416Z,120
2016-05-26T10:43:59.418Z,120
2016-05-26T10:44:59.405Z,115
2016-05-26T10:45:59.425Z,115
2016-05-26T10:46:59.115Z,115
2016-05-26T10:47:59.133Z,115
2016-05-26T10:48:59.838Z,115
2016-05-26T10:49:59.435Z,115
2016-05-26T10:50:59.156Z,90
2016-05-26T10:51:59.457Z,115
2016-05-26T10:52:59.490Z,110
2016-05-26T10:53:59.462Z,105
2016-05-26T10:54:59.479Z,85
2016-05-26T10:55:59.185Z,85
2016-05-26T10:56:59.469Z,80
2016-05-26T10:57:59.331Z,80
2016-05-26T10:58:59.506Z,80
2016-05-26T10:59:59.509Z,80
2016-05-26T11:00:59.214Z,85
2016-05-26T11:01:59.358Z,100
2016-05-26T11:02:59.517Z,80
2016-05-26T11:04:00.394Z,80
2016-05-26T11:04:59.381Z,80
2016-05-26T11:05:59.541Z,80
2016-05-26T11:06:59.544Z,75
2016-05-26T11:07:59.546Z,90
2016-05-26T11:08:59.236Z,85
2016-05-26T11:09:59.411Z,80
2016-05-26T11:10:59.413Z,100
2016-05-26T11:11:59.588Z,105
2016-05-26T11:12:59.575Z,105
2016-05-26T11:13:59.421Z,95
2016-05-26T11:14:59.596Z,80
2016-05-26T11:15:59.582Z,75
2016-05-26T11:16:59.601Z,75
2016-05-26T11:17:59.604Z,75
2016-05-26T11:18:59.622Z,75
2016-05-26T11:19:59.313Z,75
2016-05-26T11:20:59.487Z,75
2016-05-26T11:21:59.490Z,75
2016-05-26T11:22:59.633Z,70
2016-05-26T11:23:59.495Z,70
2016-05-26T11:24:59.654Z,65
2016-05-26T11:25:59.641Z,65
2016-05-26T11:26:59.659Z,65
2016-05-26T11:27:59.506Z,65
2016-05-26T11:28:59.695Z,70
2016-05-26T11:29:59.668Z,70
2016-05-26T11:30:59.529Z,70
2016-05-26T11:31:59.689Z,70
2016-05-26T11:32:59.691Z,80
2016-05-26T11:33:59.537Z,85
2016-05-26T11:34:59.697Z,70
2016-05-26T11:35:59.559Z,70
2016-05-26T11:36:59.545Z,70
2016-05-26T11:37:59.720Z,75
2016-05-26T11:38:59.739Z,75
2016-05-26T11:39:59.741Z,75
2016-05-26T11:40:59.572Z,85
2016-05-26T11:41:59.763Z,75
2016-05-26T11:42:59.750Z,75
2016-05-26T11:43:59.768Z,75
2016-05-26T11:44:59.771Z,70
2016-05-26T11:45:59.773Z,75
2016-05-26T11:46:59.463Z,95
2016-05-26T11:47:59.482Z,100
2016-05-26T11:48:59.797Z,95
2016-05-26T11:49:59.627Z,95
2016-05-26T11:50:59.802Z,95
2016-05-26T11:51:59.805Z,80
2016-05-26T11:52:59.808Z,90
2016-05-26T11:53:59.826Z,90
2016-05-26T11:54:59.813Z,90
2016-05-26T11:55:59.831Z,70
2016-05-26T11:56:59.835Z,70
2016-05-26T11:57:59.681Z,70
2016-05-26T11:58:59.839Z,70
2016-05-26T11:59:59.687Z,80
2016-05-26T12:00:59.876Z,70
2016-05-26T12:01:59.862Z,70
2016-05-26T12:02:59.881Z,70
2016-05-26T12:04:01.884Z,70
2016-05-26T12:04:59.871Z,70
2016-05-26T12:05:59.561Z,70
2016-05-26T12:06:59.923Z,70
2016-05-26T12:07:59.895Z,70
2016-05-26T12:08:59.741Z,85
2016-05-26T12:09:59.917Z,65
2016-05-26T12:10:59.919Z,70
2016-05-26T12:11:59.905Z,65
2016-05-26T12:12:59.924Z,60
2016-05-26T12:13:59.927Z,60
2016-05-26T12:14:59.945Z,60
2016-05-26T12:15:59.791Z,60
2016-05-26T12:16:59.950Z,60
2016-05-26T12:17:59.952Z,60
2016-05-26T12:18:59.971Z,60
2016-05-26T12:19:59.958Z,65
2016-05-26T12:20:59.821Z,65
2016-05-26T12:21:59.979Z,60
2016-05-26T12:22:59.826Z,60
2016-05-26T12:23:59.984Z,60
2016-05-26T12:25:00.004Z,60
2016-05-26T12:26:00.006Z,65
2016-05-26T12:26:59.992Z,65
2016-05-26T12:27:59.855Z,60
2016-05-26T12:29:00.014Z,60
2016-05-26T12:30:00.032Z,60
2016-05-26T12:31:00.066Z,65
2016-05-26T12:32:00.022Z,65
2016-05-26T12:32:59.884Z,70
2016-05-26T12:34:00.153Z,80
2016-05-26T12:35:00.046Z,70
2016-05-26T12:36:00.064Z,70
2016-05-26T12:37:00.066Z,70
2016-05-26T12:38:00.070Z,80
2016-05-26T12:39:00.088Z,80
2016-05-26T12:39:59.950Z,70
2016-05-26T12:41:00.078Z,75
2016-05-26T12:42:00.095Z,80
2016-05-26T12:42:59.958Z,80
2016-05-26T12:44:00.100Z,75
2016-05-26T12:45:00.104Z,80
2016-05-26T12:45:59.966Z,70
2016-05-26T12:46:59.969Z,80
2016-05-26T12:48:00.127Z,70
2016-05-26T12:49:00.849Z,75
2016-05-26T12:49:59.836Z,65
2016-05-26T12:50:59.994Z,65
2016-05-26T12:52:00.154Z,60
2016-05-26T12:53:00.157Z,60
2016-05-26T12:54:00.003Z,60
2016-05-26T12:55:00.021Z,60
2016-05-26T12:56:00.165Z,60
2016-05-26T12:57:00.168Z,60
2016-05-26T12:58:00.186Z,60
2016-05-26T12:59:00.204Z,60
2016-05-26T13:00:00.035Z,55
2016-05-26T13:01:00.210Z,55
2016-05-26T13:02:00.056Z,60
2016-05-26T13:03:00.059Z,65
2016-05-26T13:04:00.312Z,70
2016-05-26T13:05:00.079Z,70
2016-05-26T13:06:00.067Z,65
2016-05-26T13:07:00.085Z,60
2016-05-26T13:08:00.244Z,60
2016-05-26T13:09:00.090Z,55
2016-05-26T13:10:00.109Z,55
2016-05-26T13:11:00.253Z,55
2016-05-26T13:12:00.114Z,55
2016-05-26T13:13:00.273Z,55
2016-05-26T13:14:00.292Z,55
2016-05-26T13:15:00.278Z,55
2016-05-26T13:16:00.297Z,55
2016-05-26T13:17:00.143Z,55
2016-05-26T13:18:00.286Z,55
2016-05-26T13:19:00.211Z,55
2016-05-26T13:20:00.166Z,60
2016-05-26T13:21:00.169Z,60
2016-05-26T13:22:00.313Z,60
2016-05-26T13:23:00.330Z,65
2016-05-26T13:24:00.333Z,65
2016-05-26T13:25:00.336Z,65
2016-05-26T13:26:00.199Z,65
2016-05-26T13:27:00.373Z,65
2016-05-26T13:28:00.360Z,65
2016-05-26T13:29:00.363Z,65
2016-05-26T13:30:00.225Z,60
2016-05-26T13:31:00.368Z,60
2016-05-26T13:32:00.230Z,55
2016-05-26T13:33:00.233Z,55
2016-05-26T13:34:01.048Z,55
2016-05-26T13:35:00.395Z,55
2016-05-26T13:36:00.100Z,55
2016-05-26T13:37:00.260Z,55
2016-05-26T13:38:00.418Z,55
2016-05-26T13:39:00.420Z,55
2016-05-26T13:40:00.424Z,50
2016-05-26T13:41:00.426Z,50
2016-05-26T13:42:00.429Z,55
2016-05-26T13:43:00.431Z,50
2016-05-26T13:44:00.294Z,50
2016-05-26T13:45:00.453Z,50
2016-05-26T13:46:00.455Z,45
2016-05-26T13:47:00.474Z,45
2016-05-26T13:48:00.319Z,45
2016-05-26T13:49:00.932Z,45
2016-05-26T13:50:00.482Z,45
2016-05-26T13:51:00.375Z,50
2016-05-26T13:52:00.331Z,45
2016-05-26T13:53:00.193Z,50
2016-05-26T13:54:00.196Z,50
2016-05-26T13:55:00.355Z,50
2016-05-26T13:56:00.358Z,50
2016-05-26T13:57:00.360Z,50
2016-05-26T13:58:00.534Z,55
2016-05-26T13:59:00.257Z,55
2016-05-26T14:00:00.227Z,50
2016-05-26T14:01:00.543Z,50
2016-05-26T14:02:00.560Z,50
2016-05-26T14:03:00.563Z,50
2016-05-26T14:04:00.410Z,50
2016-05-26T14:05:00.569Z,50
2016-05-26T14:06:00.587Z,50
2016-05-26T14:07:00.590Z,50
2016-05-26T14:08:00.562Z,50
2016-05-26T14:09:00.596Z,55
2016-05-26T14:10:00.442Z,55
2016-05-26T14:11:00.460Z,55
2016-05-26T14:12:00.447Z,55
2016-05-26T14:13:00.465Z,50
2016-05-26T14:14:00.609Z,50
2016-05-26T14:15:00.611Z,50
2016-05-26T14:16:00.614Z,50
2016-05-26T14:17:00.319Z,50
2016-05-26T14:18:00.479Z,50
2016-05-26T14:19:00.497Z,55